sensor_id;sensor_type;location;lat;lon;timestamp;P1;durP1;ratioP1;P2;durP2;ratioP2
70313;SDS011;57725;47.526;18.986;2023-04-06T00:02:09;6.05;;;3.75;;
70313;SDS011;57725;47.526;18.986;2023-04-06T00:04:35;7.75;;;4.07;;
70313;SDS011;57725;47.526;18.986;2023-04-06T00:07:00;7.90;;;4.45;;
70313;SDS011;57725;47.526;18.986;2023-04-06T00:09:26;9.20;;;4.40;;
70313;SDS011;57725;47.526;18.986;2023-04-06T00:11:54;6.95;;;4.30;;
70313;SDS011;57725;47.526;18.986;2023-04-06T00:14:20;8.30;;;4.45;;
70313;SDS011;57725;47.526;18.986;2023-04-06T00:16:50;8.32;;;4.70;;
70313;SDS011;57725;47.526;18.986;2023-04-06T00:19:18;7.82;;;4.15;;
70313;SDS011;57725;47.526;18.986;2023-04-06T00:21:43;6.57;;;4.10;;
70313;SDS011;57725;47.526;18.986;2023-04-06T00:24:09;6.65;;;4.47;;
70313;SDS011;57725;47.526;18.986;2023-04-06T00:26:39;6.78;;;4.60;;
70313;SDS011;57725;47.526;18.986;2023-04-06T00:29:05;6.85;;;4.35;;
70313;SDS011;57725;47.526;18.986;2023-04-06T00:31:30;6.13;;;3.75;;
70313;SDS011;57725;47.526;18.986;2023-04-06T00:33:58;8.82;;;4.57;;
70313;SDS011;57725;47.526;18.986;2023-04-06T00:36:24;6.90;;;4.18;;
70313;SDS011;57725;47.526;18.986;2023-04-06T00:38:50;7.40;;;4.00;;
70313;SDS011;57725;47.526;18.986;2023-04-06T00:41:20;6.03;;;4.40;;
70313;SDS011;57725;47.526;18.986;2023-04-06T00:43:46;7.57;;;4.53;;
70313;SDS011;57725;47.526;18.986;2023-04-06T00:46:11;6.25;;;4.22;;
70313;SDS011;57725;47.526;18.986;2023-04-06T00:48:39;6.43;;;4.07;;
70313;SDS011;57725;47.526;18.986;2023-04-06T00:51:05;5.40;;;3.90;;
70313;SDS011;57725;47.526;18.986;2023-04-06T00:53:31;9.00;;;4.53;;
70313;SDS011;57725;47.526;18.986;2023-04-06T00:55:56;6.53;;;4.28;;
70313;SDS011;57725;47.526;18.986;2023-04-06T00:58:21;9.82;;;4.75;;
70313;SDS011;57725;47.526;18.986;2023-04-06T01:00:47;7.78;;;4.25;;
70313;SDS011;57725;47.526;18.986;2023-04-06T01:03:12;7.18;;;4.50;;
70313;SDS011;57725;47.526;18.986;2023-04-06T01:05:41;7.63;;;4.53;;
70313;SDS011;57725;47.526;18.986;2023-04-06T01:08:07;5.72;;;4.15;;
70313;SDS011;57725;47.526;18.986;2023-04-06T01:10:35;7.63;;;4.38;;
70313;SDS011;57725;47.526;18.986;2023-04-06T01:13:00;6.60;;;4.25;;
70313;SDS011;57725;47.526;18.986;2023-04-06T01:15:28;8.43;;;4.60;;
70313;SDS011;57725;47.526;18.986;2023-04-06T01:17:54;7.93;;;4.47;;
70313;SDS011;57725;47.526;18.986;2023-04-06T01:20:20;8.02;;;4.20;;
70313;SDS011;57725;47.526;18.986;2023-04-06T01:22:48;5.22;;;3.67;;
70313;SDS011;57725;47.526;18.986;2023-04-06T01:25:13;6.00;;;3.95;;
70313;SDS011;57725;47.526;18.986;2023-04-06T01:27:38;6.07;;;4.00;;
70313;SDS011;57725;47.526;18.986;2023-04-06T01:30:04;5.63;;;3.65;;
70313;SDS011;57725;47.526;18.986;2023-04-06T01:32:31;7.22;;;4.75;;
70313;SDS011;57725;47.526;18.986;2023-04-06T01:34:59;6.63;;;3.92;;
70313;SDS011;57725;47.526;18.986;2023-04-06T01:37:24;6.63;;;4.18;;
70313;SDS011;57725;47.526;18.986;2023-04-06T01:39:52;6.93;;;4.03;;
70313;SDS011;57725;47.526;18.986;2023-04-06T01:42:26;7.10;;;4.55;;
70313;SDS011;57725;47.526;18.986;2023-04-06T01:44:53;7.75;;;4.55;;
70313;SDS011;57725;47.526;18.986;2023-04-06T01:47:18;6.53;;;4.15;;
70313;SDS011;57725;47.526;18.986;2023-04-06T01:49:43;8.77;;;4.57;;
70313;SDS011;57725;47.526;18.986;2023-04-06T01:52:11;6.90;;;4.15;;
70313;SDS011;57725;47.526;18.986;2023-04-06T01:54:40;6.10;;;4.35;;
70313;SDS011;57725;47.526;18.986;2023-04-06T01:57:09;8.00;;;4.10;;
70313;SDS011;57725;47.526;18.986;2023-04-06T01:59:37;8.18;;;4.30;;
70313;SDS011;57725;47.526;18.986;2023-04-06T02:02:05;5.78;;;4.03;;
70313;SDS011;57725;47.526;18.986;2023-04-06T02:04:31;6.47;;;4.40;;
70313;SDS011;57725;47.526;18.986;2023-04-06T02:06:56;6.80;;;4.57;;
70313;SDS011;57725;47.526;18.986;2023-04-06T02:09:22;7.10;;;4.55;;
70313;SDS011;57725;47.526;18.986;2023-04-06T02:11:47;6.88;;;3.65;;
70313;SDS011;57725;47.526;18.986;2023-04-06T02:14:12;8.23;;;4.72;;
70313;SDS011;57725;47.526;18.986;2023-04-06T02:16:40;7.70;;;4.50;;
70313;SDS011;57725;47.526;18.986;2023-04-06T02:19:06;5.20;;;3.50;;
70313;SDS011;57725;47.526;18.986;2023-04-06T02:21:33;6.85;;;4.55;;
70313;SDS011;57725;47.526;18.986;2023-04-06T02:23:59;8.82;;;4.25;;
70313;SDS011;57725;47.526;18.986;2023-04-06T02:26:24;6.28;;;4.20;;
70313;SDS011;57725;47.526;18.986;2023-04-06T02:28:49;6.40;;;4.38;;
70313;SDS011;57725;47.526;18.986;2023-04-06T02:31:17;7.28;;;4.40;;
70313;SDS011;57725;47.526;18.986;2023-04-06T02:33:45;7.07;;;4.57;;
70313;SDS011;57725;47.526;18.986;2023-04-06T02:36:10;6.63;;;4.07;;
70313;SDS011;57725;47.526;18.986;2023-04-06T02:38:38;6.55;;;4.10;;
70313;SDS011;57725;47.526;18.986;2023-04-06T02:41:06;8.23;;;4.38;;
70313;SDS011;57725;47.526;18.986;2023-04-06T02:43:33;6.95;;;4.38;;
70313;SDS011;57725;47.526;18.986;2023-04-06T02:45:59;6.50;;;3.97;;
70313;SDS011;57725;47.526;18.986;2023-04-06T02:48:25;9.00;;;4.97;;
70313;SDS011;57725;47.526;18.986;2023-04-06T02:50:50;7.32;;;4.95;;
70313;SDS011;57725;47.526;18.986;2023-04-06T02:53:16;8.18;;;5.45;;
70313;SDS011;57725;47.526;18.986;2023-04-06T02:55:41;7.18;;;4.45;;
70313;SDS011;57725;47.526;18.986;2023-04-06T02:58:09;7.88;;;5.13;;
70313;SDS011;57725;47.526;18.986;2023-04-06T03:00:34;7.40;;;4.72;;
70313;SDS011;57725;47.526;18.986;2023-04-06T03:03:03;5.78;;;4.35;;
70313;SDS011;57725;47.526;18.986;2023-04-06T03:05:28;6.05;;;4.40;;
70313;SDS011;57725;47.526;18.986;2023-04-06T03:07:54;9.43;;;4.95;;
70313;SDS011;57725;47.526;18.986;2023-04-06T03:10:20;7.15;;;4.72;;
70313;SDS011;57725;47.526;18.986;2023-04-06T03:12:47;9.25;;;5.25;;
70313;SDS011;57725;47.526;18.986;2023-04-06T03:15:13;8.57;;;5.05;;
70313;SDS011;57725;47.526;18.986;2023-04-06T03:17:38;7.85;;;4.65;;
70313;SDS011;57725;47.526;18.986;2023-04-06T03:20:06;7.47;;;4.78;;
70313;SDS011;57725;47.526;18.986;2023-04-06T03:22:37;6.82;;;4.20;;
70313;SDS011;57725;47.526;18.986;2023-04-06T03:25:03;6.55;;;4.35;;
70313;SDS011;57725;47.526;18.986;2023-04-06T03:27:31;7.57;;;4.82;;
70313;SDS011;57725;47.526;18.986;2023-04-06T03:29:57;7.70;;;5.05;;
70313;SDS011;57725;47.526;18.986;2023-04-06T03:32:23;8.65;;;5.28;;
70313;SDS011;57725;47.526;18.986;2023-04-06T03:34:53;9.98;;;5.10;;
70313;SDS011;57725;47.526;18.986;2023-04-06T03:37:21;7.93;;;4.75;;
70313;SDS011;57725;47.526;18.986;2023-04-06T03:39:47;7.55;;;4.85;;
70313;SDS011;57725;47.526;18.986;2023-04-06T03:42:12;7.68;;;5.07;;
70313;SDS011;57725;47.526;18.986;2023-04-06T03:44:37;9.15;;;5.20;;
70313;SDS011;57725;47.526;18.986;2023-04-06T03:47:03;6.55;;;4.55;;
70313;SDS011;57725;47.526;18.986;2023-04-06T03:49:31;8.57;;;5.20;;
70313;SDS011;57725;47.526;18.986;2023-04-06T03:52:00;8.13;;;5.10;;
70313;SDS011;57725;47.526;18.986;2023-04-06T03:54:26;7.13;;;5.05;;
70313;SDS011;57725;47.526;18.986;2023-04-06T03:56:51;6.43;;;4.30;;
70313;SDS011;57725;47.526;18.986;2023-04-06T03:59:20;6.40;;;4.55;;
70313;SDS011;57725;47.526;18.986;2023-04-06T04:01:45;8.10;;;5.20;;
70313;SDS011;57725;47.526;18.986;2023-04-06T04:04:10;7.03;;;4.38;;
70313;SDS011;57725;47.526;18.986;2023-04-06T04:06:38;7.13;;;4.28;;
70313;SDS011;57725;47.526;18.986;2023-04-06T04:09:08;8.60;;;5.32;;
70313;SDS011;57725;47.526;18.986;2023-04-06T04:11:34;7.32;;;4.45;;
70313;SDS011;57725;47.526;18.986;2023-04-06T04:13:59;8.40;;;5.40;;
70313;SDS011;57725;47.526;18.986;2023-04-06T04:16:25;8.00;;;5.35;;
70313;SDS011;57725;47.526;18.986;2023-04-06T04:18:50;7.57;;;4.93;;
70313;SDS011;57725;47.526;18.986;2023-04-06T04:21:18;9.57;;;5.63;;
70313;SDS011;57725;47.526;18.986;2023-04-06T04:23:43;7.40;;;4.40;;
70313;SDS011;57725;47.526;18.986;2023-04-06T04:26:09;8.07;;;5.47;;
70313;SDS011;57725;47.526;18.986;2023-04-06T04:28:35;7.55;;;4.70;;
70313;SDS011;57725;47.526;18.986;2023-04-06T04:31:00;7.50;;;4.63;;
70313;SDS011;57725;47.526;18.986;2023-04-06T04:33:25;8.55;;;5.47;;
70313;SDS011;57725;47.526;18.986;2023-04-06T04:35:53;8.20;;;5.32;;
70313;SDS011;57725;47.526;18.986;2023-04-06T04:38:19;8.30;;;5.65;;
70313;SDS011;57725;47.526;18.986;2023-04-06T04:40:44;7.53;;;5.00;;
70313;SDS011;57725;47.526;18.986;2023-04-06T04:43:10;9.88;;;5.45;;
70313;SDS011;57725;47.526;18.986;2023-04-06T04:45:35;7.68;;;5.43;;
70313;SDS011;57725;47.526;18.986;2023-04-06T04:48:03;8.68;;;5.22;;
70313;SDS011;57725;47.526;18.986;2023-04-06T04:50:32;8.73;;;5.55;;
70313;SDS011;57725;47.526;18.986;2023-04-06T04:52:58;9.57;;;5.38;;
70313;SDS011;57725;47.526;18.986;2023-04-06T04:55:26;9.05;;;5.30;;
70313;SDS011;57725;47.526;18.986;2023-04-06T04:57:51;8.30;;;5.13;;
70313;SDS011;57725;47.526;18.986;2023-04-06T05:00:16;10.70;;;5.90;;
70313;SDS011;57725;47.526;18.986;2023-04-06T05:02:42;8.40;;;5.30;;
70313;SDS011;57725;47.526;18.986;2023-04-06T05:05:07;8.90;;;5.45;;
70313;SDS011;57725;47.526;18.986;2023-04-06T05:07:33;8.07;;;5.32;;
70313;SDS011;57725;47.526;18.986;2023-04-06T05:10:01;8.43;;;5.43;;
70313;SDS011;57725;47.526;18.986;2023-04-06T05:12:31;7.38;;;5.20;;
70313;SDS011;57725;47.526;18.986;2023-04-06T05:14:56;9.55;;;5.28;;
70313;SDS011;57725;47.526;18.986;2023-04-06T05:17:22;7.82;;;5.43;;
70313;SDS011;57725;47.526;18.986;2023-04-06T05:19:47;10.25;;;5.90;;
70313;SDS011;57725;47.526;18.986;2023-04-06T05:22:15;8.25;;;5.38;;
70313;SDS011;57725;47.526;18.986;2023-04-06T05:24:42;8.68;;;5.60;;
70313;SDS011;57725;47.526;18.986;2023-04-06T05:27:08;9.85;;;5.68;;
70313;SDS011;57725;47.526;18.986;2023-04-06T05:29:34;8.90;;;5.72;;
70313;SDS011;57725;47.526;18.986;2023-04-06T05:32:02;7.45;;;4.60;;
70313;SDS011;57725;47.526;18.986;2023-04-06T05:34:28;8.75;;;5.60;;
70313;SDS011;57725;47.526;18.986;2023-04-06T05:36:53;8.43;;;5.68;;
70313;SDS011;57725;47.526;18.986;2023-04-06T05:39:19;9.60;;;6.10;;
70313;SDS011;57725;47.526;18.986;2023-04-06T05:41:45;10.15;;;6.13;;
70313;SDS011;57725;47.526;18.986;2023-04-06T05:44:13;10.13;;;6.55;;
70313;SDS011;57725;47.526;18.986;2023-04-06T05:46:38;8.63;;;5.90;;
70313;SDS011;57725;47.526;18.986;2023-04-06T05:49:04;10.68;;;5.95;;
70313;SDS011;57725;47.526;18.986;2023-04-06T05:51:31;9.68;;;6.03;;
70313;SDS011;57725;47.526;18.986;2023-04-06T05:53:59;8.45;;;5.95;;
70313;SDS011;57725;47.526;18.986;2023-04-06T05:56:27;10.55;;;6.22;;
70313;SDS011;57725;47.526;18.986;2023-04-06T05:58:56;9.85;;;6.25;;
70313;SDS011;57725;47.526;18.986;2023-04-06T06:01:24;8.65;;;6.55;;
70313;SDS011;57725;47.526;18.986;2023-04-06T06:03:50;10.43;;;6.43;;
70313;SDS011;57725;47.526;18.986;2023-04-06T06:06:17;12.27;;;6.72;;
70313;SDS011;57725;47.526;18.986;2023-04-06T06:08:43;8.98;;;6.28;;
70313;SDS011;57725;47.526;18.986;2023-04-06T06:11:11;9.73;;;6.18;;
70313;SDS011;57725;47.526;18.986;2023-04-06T06:13:39;11.50;;;7.25;;
70313;SDS011;57725;47.526;18.986;2023-04-06T06:16:07;8.93;;;6.60;;
70313;SDS011;57725;47.526;18.986;2023-04-06T06:18:32;10.63;;;6.40;;
70313;SDS011;57725;47.526;18.986;2023-04-06T06:21:01;11.05;;;7.15;;
70313;SDS011;57725;47.526;18.986;2023-04-06T06:23:30;10.30;;;6.93;;
70313;SDS011;57725;47.526;18.986;2023-04-06T06:25:55;10.30;;;6.45;;
70313;SDS011;57725;47.526;18.986;2023-04-06T06:28:25;8.93;;;6.35;;
70313;SDS011;57725;47.526;18.986;2023-04-06T06:30:51;10.38;;;6.65;;
70313;SDS011;57725;47.526;18.986;2023-04-06T06:33:21;9.50;;;6.35;;
70313;SDS011;57725;47.526;18.986;2023-04-06T06:35:51;9.80;;;6.40;;
70313;SDS011;57725;47.526;18.986;2023-04-06T06:38:19;9.82;;;6.25;;
70313;SDS011;57725;47.526;18.986;2023-04-06T06:40:52;9.18;;;6.65;;
70313;SDS011;57725;47.526;18.986;2023-04-06T06:43:20;11.10;;;6.95;;
70313;SDS011;57725;47.526;18.986;2023-04-06T06:45:48;10.35;;;6.45;;
70313;SDS011;57725;47.526;18.986;2023-04-06T06:48:13;9.98;;;7.10;;
70313;SDS011;57725;47.526;18.986;2023-04-06T06:50:39;9.80;;;6.72;;
70313;SDS011;57725;47.526;18.986;2023-04-06T06:53:07;10.45;;;6.20;;
70313;SDS011;57725;47.526;18.986;2023-04-06T06:55:32;11.63;;;6.75;;
70313;SDS011;57725;47.526;18.986;2023-04-06T06:57:57;10.40;;;6.55;;
70313;SDS011;57725;47.526;18.986;2023-04-06T07:00:23;10.48;;;6.25;;
70313;SDS011;57725;47.526;18.986;2023-04-06T07:02:48;9.95;;;6.57;;
70313;SDS011;57725;47.526;18.986;2023-04-06T07:05:16;8.55;;;6.32;;
70313;SDS011;57725;47.526;18.986;2023-04-06T07:07:42;10.65;;;7.43;;
70313;SDS011;57725;47.526;18.986;2023-04-06T07:10:07;11.65;;;6.72;;
70313;SDS011;57725;47.526;18.986;2023-04-06T07:12:36;10.43;;;6.88;;
70313;SDS011;57725;47.526;18.986;2023-04-06T07:15:03;10.40;;;6.65;;
70313;SDS011;57725;47.526;18.986;2023-04-06T07:17:30;9.80;;;6.95;;
70313;SDS011;57725;47.526;18.986;2023-04-06T07:19:55;11.57;;;6.85;;
70313;SDS011;57725;47.526;18.986;2023-04-06T07:22:23;11.43;;;7.22;;
70313;SDS011;57725;47.526;18.986;2023-04-06T07:24:49;11.90;;;6.90;;
70313;SDS011;57725;47.526;18.986;2023-04-06T07:27:14;10.32;;;6.90;;
70313;SDS011;57725;47.526;18.986;2023-04-06T07:29:41;10.75;;;7.18;;
70313;SDS011;57725;47.526;18.986;2023-04-06T07:32:07;11.57;;;6.88;;
70313;SDS011;57725;47.526;18.986;2023-04-06T07:34:34;11.15;;;7.75;;
70313;SDS011;57725;47.526;18.986;2023-04-06T07:37:03;10.75;;;6.70;;
70313;SDS011;57725;47.526;18.986;2023-04-06T07:39:28;12.10;;;7.55;;
70313;SDS011;57725;47.526;18.986;2023-04-06T07:41:53;11.23;;;6.70;;
70313;SDS011;57725;47.526;18.986;2023-04-06T07:44:22;10.27;;;6.80;;
70313;SDS011;57725;47.526;18.986;2023-04-06T07:46:47;12.18;;;7.07;;
70313;SDS011;57725;47.526;18.986;2023-04-06T07:49:13;11.30;;;7.60;;
70313;SDS011;57725;47.526;18.986;2023-04-06T07:51:38;11.35;;;7.18;;
70313;SDS011;57725;47.526;18.986;2023-04-06T07:54:05;12.48;;;6.80;;
70313;SDS011;57725;47.526;18.986;2023-04-06T07:56:33;11.05;;;7.15;;
70313;SDS011;57725;47.526;18.986;2023-04-06T07:58:58;12.60;;;7.22;;
70313;SDS011;57725;47.526;18.986;2023-04-06T08:01:24;12.90;;;7.00;;
70313;SDS011;57725;47.526;18.986;2023-04-06T08:03:50;10.88;;;6.70;;
70313;SDS011;57725;47.526;18.986;2023-04-06T08:06:18;10.75;;;7.05;;
70313;SDS011;57725;47.526;18.986;2023-04-06T08:08:43;10.57;;;6.35;;
70313;SDS011;57725;47.526;18.986;2023-04-06T08:11:09;10.25;;;6.88;;
70313;SDS011;57725;47.526;18.986;2023-04-06T08:13:40;9.10;;;6.60;;
70313;SDS011;57725;47.526;18.986;2023-04-06T08:16:06;10.38;;;6.65;;
70313;SDS011;57725;47.526;18.986;2023-04-06T08:18:42;10.65;;;6.88;;
70313;SDS011;57725;47.526;18.986;2023-04-06T08:21:07;12.60;;;7.32;;
70313;SDS011;57725;47.526;18.986;2023-04-06T08:23:33;11.18;;;7.03;;
70313;SDS011;57725;47.526;18.986;2023-04-06T08:26:05;11.10;;;7.20;;
70313;SDS011;57725;47.526;18.986;2023-04-06T08:28:30;11.48;;;6.88;;
70313;SDS011;57725;47.526;18.986;2023-04-06T08:30:56;11.63;;;7.25;;
70313;SDS011;57725;47.526;18.986;2023-04-06T08:33:21;12.20;;;7.10;;
70313;SDS011;57725;47.526;18.986;2023-04-06T08:35:49;11.68;;;7.65;;
70313;SDS011;57725;47.526;18.986;2023-04-06T08:38:15;13.07;;;7.00;;
70313;SDS011;57725;47.526;18.986;2023-04-06T08:40:50;11.55;;;7.30;;
70313;SDS011;57725;47.526;18.986;2023-04-06T08:43:16;10.38;;;7.35;;
70313;SDS011;57725;47.526;18.986;2023-04-06T08:45:47;11.82;;;7.15;;
70313;SDS011;57725;47.526;18.986;2023-04-06T08:48:13;9.35;;;6.47;;
70313;SDS011;57725;47.526;18.986;2023-04-06T08:50:40;10.18;;;7.07;;
70313;SDS011;57725;47.526;18.986;2023-04-06T08:53:08;10.80;;;7.47;;
70313;SDS011;57725;47.526;18.986;2023-04-06T08:55:39;10.73;;;7.00;;
70313;SDS011;57725;47.526;18.986;2023-04-06T08:58:06;10.80;;;6.68;;
70313;SDS011;57725;47.526;18.986;2023-04-06T09:00:37;12.98;;;7.45;;
70313;SDS011;57725;47.526;18.986;2023-04-06T09:03:06;11.30;;;7.53;;
70313;SDS011;57725;47.526;18.986;2023-04-06T09:05:34;15.57;;;7.55;;
70313;SDS011;57725;47.526;18.986;2023-04-06T09:08:03;11.52;;;7.18;;
70313;SDS011;57725;47.526;18.986;2023-04-06T09:10:28;10.05;;;7.07;;
70313;SDS011;57725;47.526;18.986;2023-04-06T09:13:02;9.30;;;6.60;;
70313;SDS011;57725;47.526;18.986;2023-04-06T09:15:30;10.13;;;6.72;;
70313;SDS011;57725;47.526;18.986;2023-04-06T09:17:55;10.98;;;6.82;;
70313;SDS011;57725;47.526;18.986;2023-04-06T09:20:22;11.27;;;7.72;;
70313;SDS011;57725;47.526;18.986;2023-04-06T09:22:53;10.20;;;6.75;;
70313;SDS011;57725;47.526;18.986;2023-04-06T09:25:23;10.00;;;6.80;;
70313;SDS011;57725;47.526;18.986;2023-04-06T09:27:58;12.50;;;7.20;;
70313;SDS011;57725;47.526;18.986;2023-04-06T09:30:29;10.15;;;6.63;;
70313;SDS011;57725;47.526;18.986;2023-04-06T09:32:57;9.40;;;6.68;;
70313;SDS011;57725;47.526;18.986;2023-04-06T09:35:24;11.98;;;7.03;;
70313;SDS011;57725;47.526;18.986;2023-04-06T09:37:51;10.75;;;7.10;;
70313;SDS011;57725;47.526;18.986;2023-04-06T09:40:20;10.07;;;7.28;;
70313;SDS011;57725;47.526;18.986;2023-04-06T09:43:01;10.73;;;7.30;;
70313;SDS011;57725;47.526;18.986;2023-04-06T09:45:28;10.00;;;6.63;;
70313;SDS011;57725;47.526;18.986;2023-04-06T09:47:55;11.18;;;6.95;;
70313;SDS011;57725;47.526;18.986;2023-04-06T09:50:24;9.32;;;6.40;;
70313;SDS011;57725;47.526;18.986;2023-04-06T09:52:51;12.20;;;7.28;;
70313;SDS011;57725;47.526;18.986;2023-04-06T09:58:15;9.02;;;6.78;;
70313;SDS011;57725;47.526;18.986;2023-04-06T10:06:00;9.48;;;6.13;;
70313;SDS011;57725;47.526;18.986;2023-04-06T10:08:36;10.20;;;6.57;;
70313;SDS011;57725;47.526;18.986;2023-04-06T10:11:08;9.82;;;5.60;;
70313;SDS011;57725;47.526;18.986;2023-04-06T10:13:38;9.57;;;6.20;;
70313;SDS011;57725;47.526;18.986;2023-04-06T10:16:06;8.85;;;6.35;;
70313;SDS011;57725;47.526;18.986;2023-04-06T10:18:33;11.65;;;6.93;;
70313;SDS011;57725;47.526;18.986;2023-04-06T10:21:04;10.82;;;6.57;;
70313;SDS011;57725;47.526;18.986;2023-04-06T10:23:36;11.93;;;7.20;;
70313;SDS011;57725;47.526;18.986;2023-04-06T10:28:43;9.45;;;6.47;;
70313;SDS011;57725;47.526;18.986;2023-04-06T10:31:14;11.45;;;7.40;;
70313;SDS011;57725;47.526;18.986;2023-04-06T10:34:00;10.35;;;6.38;;
70313;SDS011;57725;47.526;18.986;2023-04-06T10:36:27;10.20;;;6.22;;
70313;SDS011;57725;47.526;18.986;2023-04-06T10:38:57;6.72;;;5.50;;
70313;SDS011;57725;47.526;18.986;2023-04-06T10:42:05;9.32;;;6.07;;
70313;SDS011;57725;47.526;18.986;2023-04-06T10:44:31;9.15;;;6.10;;
70313;SDS011;57725;47.526;18.986;2023-04-06T10:47:06;8.35;;;6.20;;
70313;SDS011;57725;47.526;18.986;2023-04-06T10:49:41;9.73;;;5.85;;
70313;SDS011;57725;47.526;18.986;2023-04-06T10:52:09;8.43;;;6.40;;
70313;SDS011;57725;47.526;18.986;2023-04-06T10:54:35;11.10;;;6.45;;
70313;SDS011;57725;47.526;18.986;2023-04-06T10:57:07;8.20;;;5.78;;
70313;SDS011;57725;47.526;18.986;2023-04-06T10:59:32;8.88;;;5.95;;
70313;SDS011;57725;47.526;18.986;2023-04-06T11:02:00;9.77;;;5.93;;
70313;SDS011;57725;47.526;18.986;2023-04-06T11:04:26;8.00;;;5.80;;
70313;SDS011;57725;47.526;18.986;2023-04-06T11:06:54;7.93;;;5.85;;
70313;SDS011;57725;47.526;18.986;2023-04-06T11:09:27;8.23;;;6.10;;
70313;SDS011;57725;47.526;18.986;2023-04-06T11:11:56;9.48;;;6.22;;
70313;SDS011;57725;47.526;18.986;2023-04-06T11:14:22;9.73;;;6.30;;
70313;SDS011;57725;47.526;18.986;2023-04-06T11:16:47;8.48;;;6.10;;
70313;SDS011;57725;47.526;18.986;2023-04-06T11:19:16;8.35;;;5.68;;
70313;SDS011;57725;47.526;18.986;2023-04-06T11:21:46;9.25;;;5.95;;
70313;SDS011;57725;47.526;18.986;2023-04-06T11:24:13;8.65;;;6.10;;
70313;SDS011;57725;47.526;18.986;2023-04-06T11:26:53;8.25;;;5.40;;
70313;SDS011;57725;47.526;18.986;2023-04-06T11:29:21;8.32;;;5.93;;
70313;SDS011;57725;47.526;18.986;2023-04-06T11:31:48;8.55;;;5.43;;
70313;SDS011;57725;47.526;18.986;2023-04-06T11:36:46;11.13;;;6.22;;
70313;SDS011;57725;47.526;18.986;2023-04-06T11:39:18;9.18;;;6.05;;
70313;SDS011;57725;47.526;18.986;2023-04-06T11:41:49;7.88;;;5.85;;
70313;SDS011;57725;47.526;18.986;2023-04-06T11:44:32;8.18;;;5.68;;
70313;SDS011;57725;47.526;18.986;2023-04-06T11:47:01;9.73;;;6.05;;
70313;SDS011;57725;47.526;18.986;2023-04-06T11:49:33;7.43;;;5.38;;
70313;SDS011;57725;47.526;18.986;2023-04-06T11:52:02;8.73;;;5.93;;
70313;SDS011;57725;47.526;18.986;2023-04-06T11:54:39;7.55;;;5.32;;
70313;SDS011;57725;47.526;18.986;2023-04-06T11:57:05;8.23;;;5.63;;
70313;SDS011;57725;47.526;18.986;2023-04-06T11:59:34;8.15;;;5.95;;
70313;SDS011;57725;47.526;18.986;2023-04-06T12:02:04;8.77;;;5.55;;
70313;SDS011;57725;47.526;18.986;2023-04-06T12:04:32;7.50;;;5.53;;
70313;SDS011;57725;47.526;18.986;2023-04-06T12:07:00;8.02;;;5.57;;
70313;SDS011;57725;47.526;18.986;2023-04-06T12:09:29;10.13;;;5.57;;
70313;SDS011;57725;47.526;18.986;2023-04-06T12:11:57;7.43;;;5.70;;
70313;SDS011;57725;47.526;18.986;2023-04-06T12:14:22;8.38;;;5.78;;
70313;SDS011;57725;47.526;18.986;2023-04-06T12:16:51;10.60;;;5.53;;
70313;SDS011;57725;47.526;18.986;2023-04-06T12:19:16;8.50;;;5.60;;
70313;SDS011;57725;47.526;18.986;2023-04-06T12:21:41;8.70;;;6.28;;
70313;SDS011;57725;47.526;18.986;2023-04-06T12:24:07;8.00;;;6.20;;
70313;SDS011;57725;47.526;18.986;2023-04-06T12:26:35;8.95;;;5.97;;
70313;SDS011;57725;47.526;18.986;2023-04-06T12:29:02;9.23;;;5.57;;
70313;SDS011;57725;47.526;18.986;2023-04-06T12:31:32;8.30;;;5.63;;
70313;SDS011;57725;47.526;18.986;2023-04-06T12:34:01;8.90;;;5.85;;
70313;SDS011;57725;47.526;18.986;2023-04-06T12:36:31;7.78;;;5.30;;
70313;SDS011;57725;47.526;18.986;2023-04-06T12:39:04;8.80;;;5.82;;
70313;SDS011;57725;47.526;18.986;2023-04-06T12:41:30;7.70;;;5.38;;
70313;SDS011;57725;47.526;18.986;2023-04-06T12:43:55;9.07;;;5.78;;
70313;SDS011;57725;47.526;18.986;2023-04-06T12:46:21;8.32;;;5.47;;
70313;SDS011;57725;47.526;18.986;2023-04-06T12:48:50;7.72;;;5.70;;
70313;SDS011;57725;47.526;18.986;2023-04-06T12:51:18;8.82;;;5.88;;
70313;SDS011;57725;47.526;18.986;2023-04-06T12:53:44;7.40;;;5.20;;
70313;SDS011;57725;47.526;18.986;2023-04-06T12:56:12;7.57;;;5.28;;
70313;SDS011;57725;47.526;18.986;2023-04-06T12:58:46;7.32;;;5.45;;
70313;SDS011;57725;47.526;18.986;2023-04-06T13:01:11;8.13;;;5.47;;
70313;SDS011;57725;47.526;18.986;2023-04-06T13:03:41;7.65;;;5.35;;
70313;SDS011;57725;47.526;18.986;2023-04-06T13:06:09;7.80;;;6.03;;
70313;SDS011;57725;47.526;18.986;2023-04-06T13:08:35;8.75;;;5.60;;
70313;SDS011;57725;47.526;18.986;2023-04-06T13:11:05;8.20;;;4.95;;
70313;SDS011;57725;47.526;18.986;2023-04-06T13:13:33;11.38;;;5.90;;
70313;SDS011;57725;47.526;18.986;2023-04-06T13:15:59;7.30;;;4.88;;
70313;SDS011;57725;47.526;18.986;2023-04-06T13:18:27;9.68;;;6.18;;
70313;SDS011;57725;47.526;18.986;2023-04-06T13:20:57;7.85;;;5.35;;
70313;SDS011;57725;47.526;18.986;2023-04-06T13:23:24;7.80;;;5.45;;
70313;SDS011;57725;47.526;18.986;2023-04-06T13:26:00;6.80;;;5.00;;
70313;SDS011;57725;47.526;18.986;2023-04-06T13:28:30;8.20;;;5.50;;
70313;SDS011;57725;47.526;18.986;2023-04-06T13:30:58;6.75;;;4.93;;
70313;SDS011;57725;47.526;18.986;2023-04-06T13:33:24;6.57;;;4.43;;
70313;SDS011;57725;47.526;18.986;2023-04-06T13:35:49;7.38;;;5.55;;
70313;SDS011;57725;47.526;18.986;2023-04-06T13:38:17;7.32;;;4.93;;
70313;SDS011;57725;47.526;18.986;2023-04-06T13:40:43;8.63;;;5.68;;
70313;SDS011;57725;47.526;18.986;2023-04-06T13:43:11;8.07;;;5.63;;
70313;SDS011;57725;47.526;18.986;2023-04-06T13:45:37;6.70;;;4.80;;
70313;SDS011;57725;47.526;18.986;2023-04-06T13:48:04;7.30;;;4.82;;
70313;SDS011;57725;47.526;18.986;2023-04-06T13:50:30;7.07;;;5.32;;
70313;SDS011;57725;47.526;18.986;2023-04-06T13:52:56;7.28;;;5.57;;
70313;SDS011;57725;47.526;18.986;2023-04-06T13:55:23;7.70;;;4.90;;
70313;SDS011;57725;47.526;18.986;2023-04-06T13:57:49;8.55;;;5.20;;
70313;SDS011;57725;47.526;18.986;2023-04-06T14:00:16;6.95;;;4.75;;
70313;SDS011;57725;47.526;18.986;2023-04-06T14:02:41;6.70;;;5.10;;
70313;SDS011;57725;47.526;18.986;2023-04-06T14:05:09;6.38;;;4.47;;
70313;SDS011;57725;47.526;18.986;2023-04-06T14:07:35;7.88;;;5.03;;
70313;SDS011;57725;47.526;18.986;2023-04-06T14:10:01;6.82;;;4.57;;
70313;SDS011;57725;47.526;18.986;2023-04-06T14:12:27;7.45;;;5.13;;
70313;SDS011;57725;47.526;18.986;2023-04-06T14:14:52;7.30;;;5.28;;
70313;SDS011;57725;47.526;18.986;2023-04-06T14:17:20;7.80;;;5.10;;
70313;SDS011;57725;47.526;18.986;2023-04-06T14:19:45;6.80;;;4.50;;
70313;SDS011;57725;47.526;18.986;2023-04-06T14:22:21;8.48;;;5.72;;
70313;SDS011;57725;47.526;18.986;2023-04-06T14:24:47;7.70;;;5.22;;
70313;SDS011;57725;47.526;18.986;2023-04-06T14:27:12;6.80;;;4.82;;
70313;SDS011;57725;47.526;18.986;2023-04-06T14:29:38;8.77;;;5.38;;
70313;SDS011;57725;47.526;18.986;2023-04-06T14:32:06;7.40;;;4.70;;
70313;SDS011;57725;47.526;18.986;2023-04-06T14:34:32;8.23;;;4.90;;
70313;SDS011;57725;47.526;18.986;2023-04-06T14:36:57;5.65;;;3.97;;
70313;SDS011;57725;47.526;18.986;2023-04-06T14:39:25;7.25;;;4.72;;
70313;SDS011;57725;47.526;18.986;2023-04-06T14:41:51;6.32;;;4.47;;
70313;SDS011;57725;47.526;18.986;2023-04-06T14:44:32;6.68;;;3.88;;
70313;SDS011;57725;47.526;18.986;2023-04-06T14:46:59;5.68;;;3.80;;